KABR/ABR METAR and TAF weather

Enter ICAO airport designator
Station Type Date Time Source
KABR METAR 2020/05/29 17:53 UTC NOAA

KABR 291753Z AUTO 30005KT 10SM SCT032 16/07 A3026 RMK AO2 SLP247 T01610067 10167 20094 55005


Station Type Date Time Source
KABR Decoded METAR 2020/05/29 17:53 UTC NOAA

ABERDEEN REGIONAL AIRPORT, SD, United States (KABR) 45-27N 098-25W 400M
May 29, 2020 - 01:53 PM EDT / 2020.05.29 1753 UTC
Wind: from the WNW (300 degrees) at 6 MPH (5 KT):0
Visibility: 10 mile(s):0
Sky conditions: partly cloudy
Temperature: 61.0 F (16.1 C)
Dew Point: 44.1 F (6.7 C)
Relative Humidity: 53%
Pressure (altimeter): 30.26 in. Hg (1024 hPa)
Pressure tendency: 0.01 inches (0.5 hPa) lower than three hours ago
ob: KABR 291753Z AUTO 30005KT 10SM SCT032 16/07 A3026 RMK AO2 SLP247 T01610067 10167 20094 55005
cycle: 18

Station Type Date Time Source
KABR TAF 2020/05/29 18:28 UTC NOAA

TAF KABR 291725Z 2918/3018 VRB05KT P6SM FEW025
FM292200 VRB05KT P6SM BKN250
FM301400 08009KT P6SM BKN050

Example: see airport list